Details From GCGM - La Gomera
To FYWH - Windhoek Hosea Kutako Intl
Flight Number -
Tags Decoded
Created
Modified
Stats Distance 3,665 nm / 6,788 km
Max Altitude 0 ft / 0 m
Waypoints 6
Social Downloads 1
Likes 0
Share VATSIM

Download

Looking for another format? Having issues loading an existing format? Contact us
Advertisement - Login to hide

Notes

Decoded

Route

GCGM GOMER CABEL EPITI UVGEN FYWH

ID Type Via Altitude Latitude Longitude Leg Dist Tot Dist Heading (true) Name
O GCGM APT - 0 ft / 0 m 28.02859˚ -17.22214˚ - 0 nm - -
GOMER FIX - 0 ft / 0 m 28.00000˚ -17.33333˚ 6 nm 6 nm 254° / 254° -
CABEL FIX - 0 ft / 0 m 25.00000˚ -14.94114˚ 221 nm 227 nm 144° / 145° -
EPITI FIX - 0 ft / 0 m 12.48500˚ -5.37528˚ 926 nm 1154 nm 142° / 146° -
UVGEN FIX - 0 ft / 0 m -22.57361˚ 16.95667˚ 2482 nm 3636 nm 148° / 146° -
O FYWH APT - 0 ft / 0 m -22.47768˚ 17.46905˚ 29 nm 3665 nm 79° / 78° Windhoek Hosea Kutako Intl

Altitude Profile

Advertisement - Login to hide

Weather


0- 5 10 15 20 25 30 35+ Temperature / ° C

Clouds and Precipitation
Forecast for 2017-12-18 00:00 UTC. Updated 29 minutes ago

Ground ~20,000 ft ~40,000 ft Winds

GCGM

Details ICAO GCGM (GMZ)
Name La Gomera
Region Canary Islands
Timezone Atlantic/Canary (UTC+0.0)
Stats Elevation 715 ft / 218 m (AMSL)
Location 28.029627° -17.214603°
Runways 1
Magnetic Variation 5.358° W

METAR

GCGM 172130Z AUTO 05010G21KT 340V100 9999 FEW037/// 17/09 Q1024 RMK R09/VRB03G13KT ARP/07007KT 010V120

Decode

TAF

TAF GCGM 172000Z 1721/1821 VRB05KT 9999 SCT030 TX23/1814Z TN18/1806Z TEMPO 1721/1808 36013KT BECMG 1810/1812 21010KT

Decode

Departure Runways

ID Width Length Bearing (true) Bearing (mag) Surface Threshold Offset Overrun Length
09 98 ft / 30 m 4,914 ft / 1,498 m 81.17° 86.53° Asphalt 0 ft / 0 m 0 ft / 0 m
27 98 ft / 30 m 4,914 ft / 1,498 m 261.18° 266.54° Asphalt 0 ft / 0 m 0 ft / 0 m

FYWH

Details ICAO FYWH
Name Windhoek Hosea Kutako Intl
Region Namibia
Timezone Africa/Windhoek (UTC+2.0)
Stats Elevation 5,640 ft / 1,719 m (AMSL)
Location -22.481811° 17.471569°
Runways 2
Magnetic Variation 12.005° W

METAR

FYWH 172100Z AUTO 26002KT //// // ////// 19/12 Q1022

Decode

TAF

Not found

Destination Runways

ID Width Length Bearing (true) Bearing (mag) Surface Threshold Offset Overrun Length
08 148 ft / 45 m 15,003 ft / 4,573 m 63.51° 75.52° Asphalt 0 ft / 0 m 345 ft / 105 m
16 98 ft / 30 m 5,010 ft / 1,527 m 141.33° 153.34° Asphalt 0 ft / 0 m 38 ft / 12 m
26 148 ft / 45 m 15,003 ft / 4,573 m 243.49° 255.50° Asphalt 0 ft / 0 m 84 ft / 26 m
34 98 ft / 30 m 5,010 ft / 1,527 m 321.32° 333.33° Asphalt 0 ft / 0 m 38 ft / 12 m

Approach Navaids

Runway Type Ident Frequency Range Bearing (true) Bearing (mag) Slope Elevation
26 Localiser WD 110.30 MHz 18 nm / 33 km 243.39° 255.40° - 5,640 ft / 1,719 m (AMSL)
26 Glidescope WD 110.30 MHz 10 nm / 19 km 243.50° 255.50° 3.00° 5,640 ft / 1,719 m (AMSL)

Popular Alternatives